Time;durP1;ratioP1;P1;durP2;ratioP2;P2;SDS_P1;SDS_P2;PMS_P1;PMS_P2;Temp;Humidity;BMP_temperature;BMP_pressure;BME280_temperature;BME280_humidity;BME280_pressure;Samples;Min_cycle;Max_cycle;Signal;HPM_P1;HPM_P2
2023/05/10 00:00:01;;;;;;;0.60;0.60;;;;;;;;;;5060678;28;20209;-64
2023/05/10 00:02:29;;;;;;;0.93;0.60;;;;;;;;;;5060782;28;20213;-63
2023/05/10 00:04:57;;;;;;;0.97;0.53;;;;;;;;;;5060801;28;20281;-64
2023/05/10 00:07:25;;;;;;;4.33;0.27;;;;;;;;;;5061037;28;20240;-63
2023/05/10 00:09:52;;;;;;;0.57;0.27;;;;;;;;;;5060544;28;20732;-64
2023/05/10 00:12:22;;;;;;;0.67;0.50;;;;;;;;;;5060846;28;20242;-63
2023/05/10 00:14:50;;;;;;;0.83;0.80;;;;;;;;;;5060569;28;20210;-63
2023/05/10 00:17:18;;;;;;;0.63;0.63;;;;;;;;;;5060266;28;20230;-64
2023/05/10 00:19:45;;;;;;;0.40;0.40;;;;;;;;;;5060722;28;20271;-64
2023/05/10 00:22:13;;;;;;;0.30;0.30;;;;;;;;;;5060617;28;20206;-64
2023/05/10 00:24:41;;;;;;;0.43;0.40;;;;;;;;;;5060198;28;20348;-64
2023/05/10 00:27:09;;;;;;;0.30;0.30;;;;;;;;;;5060576;28;20222;-65
2023/05/10 00:29:39;;;;;;;0.93;0.30;;;;;;;;;;5059472;28;20217;-65
2023/05/10 00:32:07;;;;;;;0.40;0.40;;;;;;;;;;5060167;28;20207;-65
2023/05/10 00:34:38;;;;;;;0.30;0.30;;;;;;;;;;5060529;28;20209;-64
2023/05/10 00:37:06;;;;;;;0.30;0.30;;;;;;;;;;5060416;28;20318;-65
2023/05/10 00:39:34;;;;;;;0.50;0.47;;;;;;;;;;5060555;28;20202;-65
2023/05/10 00:42:02;;;;;;;1.57;0.60;;;;;;;;;;5060212;28;20222;-64
2023/05/10 00:44:30;;;;;;;0.73;0.73;;;;;;;;;;5060446;28;20226;-65
2023/05/10 00:47:00;;;;;;;0.77;0.70;;;;;;;;;;5059880;28;20231;-65
2023/05/10 00:49:28;;;;;;;0.67;0.67;;;;;;;;;;5060043;28;20206;-65
2023/05/10 00:51:59;;;;;;;0.60;0.60;;;;;;;;;;5060157;28;20211;-65
2023/05/10 00:54:27;;;;;;;2.23;0.57;;;;;;;;;;5060236;28;20234;-65
2023/05/10 00:56:56;;;;;;;0.40;0.40;;;;;;;;;;5060086;28;20301;-65
2023/05/10 00:59:24;;;;;;;0.53;0.47;;;;;;;;;;5060077;28;20210;-65
2023/05/10 01:01:53;;;;;;;0.70;0.60;;;;;;;;;;5059927;28;20207;-65
2023/05/10 01:04:25;;;;;;;0.50;0.50;;;;;;;;;;5059814;28;20224;-65
2023/05/10 01:06:53;;;;;;;0.40;0.40;;;;;;;;;;5059900;28;20230;-65
2023/05/10 01:09:22;;;;;;;1.60;0.40;;;;;;;;;;5059941;28;20221;-65
2023/05/10 01:11:50;;;;;;;0.17;0.17;;;;;;;;;;5059746;28;20662;-65
2023/05/10 01:14:19;;;;;;;0.23;0.23;;;;;;;;;;5059648;28;20257;-65
2023/05/10 01:16:47;;;;;;;0.20;0.20;;;;;;;;;;5059682;28;20234;-65
2023/05/10 01:19:19;;;;;;;0.57;0.30;;;;;;;;;;5059247;28;20289;-64
2023/05/10 01:21:53;;;;;;;0.73;0.37;;;;;;;;;;5059795;28;20211;-65
2023/05/10 01:24:35;;;;;;;0.57;0.50;;;;;;;;;;5059253;28;20325;-64
2023/05/10 01:27:15;;;;;;;0.63;0.30;;;;;;;;;;5056937;28;20318;-65
2023/05/10 01:30:02;;;;;;;0.23;0.23;;;;;;;;;;5059341;28;20661;-65
2023/05/10 01:32:46;;;;;;;0.40;0.30;;;;;;;;;;5058929;28;20336;-65
2023/05/10 01:35:17;;;;;;;0.67;0.30;;;;;;;;;;5059175;28;20227;-65
2023/05/10 01:37:51;;;;;;;0.20;0.20;;;;;;;;;;5059200;28;20662;-65
2023/05/10 01:40:27;;;;;;;0.40;0.40;;;;;;;;;;5059198;28;20215;-65
2023/05/10 01:42:58;;;;;;;1.40;0.30;;;;;;;;;;5059132;28;20725;-65
2023/05/10 01:45:29;;;;;;;0.50;0.50;;;;;;;;;;5058833;28;20230;-65
2023/05/10 01:48:05;;;;;;;0.60;0.33;;;;;;;;;;5058622;28;20229;-65
2023/05/10 01:50:33;;;;;;;1.00;0.37;;;;;;;;;;5059221;28;20245;-65
2023/05/10 01:53:02;;;;;;;0.87;0.50;;;;;;;;;;5059196;28;20246;-65
2023/05/10 01:55:31;;;;;;;0.50;0.50;;;;;;;;;;5058846;28;20219;-65
2023/05/10 01:58:01;;;;;;;0.47;0.30;;;;;;;;;;5058766;28;20207;-65
2023/05/10 02:00:29;;;;;;;0.30;0.30;;;;;;;;;;5045805;28;20289;-65
2023/05/10 02:02:58;;;;;;;0.40;0.40;;;;;;;;;;5058241;28;20211;-65
2023/05/10 02:05:29;;;;;;;0.50;0.40;;;;;;;;;;5058759;28;20235;-65
2023/05/10 02:07:57;;;;;;;0.50;0.50;;;;;;;;;;5058519;28;20749;-65
2023/05/10 02:10:28;;;;;;;0.40;0.40;;;;;;;;;;5058801;28;20208;-65
2023/05/10 02:12:59;;;;;;;2.63;0.40;;;;;;;;;;5058445;28;20771;-65
2023/05/10 02:15:27;;;;;;;0.80;0.43;;;;;;;;;;5058618;28;20223;-64
2023/05/10 02:17:56;;;;;;;1.30;0.43;;;;;;;;;;5058002;28;20666;-65
2023/05/10 02:20:24;;;;;;;0.53;0.40;;;;;;;;;;5058537;28;20202;-65
2023/05/10 02:22:55;;;;;;;0.27;0.27;;;;;;;;;;5058345;28;20207;-66
2023/05/10 02:25:24;;;;;;;0.40;0.40;;;;;;;;;;5058428;28;20262;-65
2023/05/10 02:27:54;;;;;;;0.40;0.40;;;;;;;;;;5058407;28;20203;-65
2023/05/10 02:30:22;;;;;;;1.97;0.37;;;;;;;;;;5058414;28;20208;-65
2023/05/10 02:32:51;;;;;;;2.80;0.50;;;;;;;;;;5057830;28;20267;-65
2023/05/10 02:35:19;;;;;;;1.07;0.30;;;;;;;;;;5058257;28;20222;-65
2023/05/10 02:37:48;;;;;;;0.20;0.20;;;;;;;;;;5058051;28;20238;-65
2023/05/10 02:40:19;;;;;;;1.23;0.40;;;;;;;;;;5058008;28;20206;-65
2023/05/10 02:42:48;;;;;;;0.30;0.30;;;;;;;;;;5058285;28;20214;-65
2023/05/10 02:45:19;;;;;;;1.30;0.40;;;;;;;;;;5057712;28;20231;-65
2023/05/10 02:47:47;;;;;;;1.13;0.33;;;;;;;;;;5057858;28;20234;-65
2023/05/10 02:50:15;;;;;;;0.30;0.30;;;;;;;;;;5058000;28;20261;-65
2023/05/10 02:52:45;;;;;;;2.00;0.37;;;;;;;;;;5057264;28;20690;-65
2023/05/10 02:55:15;;;;;;;1.90;0.50;;;;;;;;;;5057912;28;20318;-65
2023/05/10 02:57:49;;;;;;;0.30;0.30;;;;;;;;;;5057754;28;20234;-64
2023/05/10 03:00:17;;;;;;;1.63;0.50;;;;;;;;;;5057499;28;20238;-65
2023/05/10 03:02:45;;;;;;;0.60;0.60;;;;;;;;;;5057581;28;20238;-65
2023/05/10 03:05:13;;;;;;;0.73;0.60;;;;;;;;;;5057443;28;20309;-65
2023/05/10 03:07:41;;;;;;;0.90;0.43;;;;;;;;;;5057960;28;20210;-64
2023/05/10 03:10:12;;;;;;;0.80;0.50;;;;;;;;;;5057562;28;20306;-63
2023/05/10 03:12:48;;;;;;;3.00;0.50;;;;;;;;;;5057524;28;20676;-65
2023/05/10 03:15:20;;;;;;;2.10;0.30;;;;;;;;;;5057658;28;20685;-63
2023/05/10 03:17:50;;;;;;;0.83;0.57;;;;;;;;;;5057098;28;20293;-65
2023/05/10 03:20:22;;;;;;;1.00;0.40;;;;;;;;;;5058192;28;20213;-64
2023/05/10 03:22:52;;;;;;;0.63;0.37;;;;;;;;;;5057428;28;20238;-65
2023/05/10 03:25:22;;;;;;;1.63;0.50;;;;;;;;;;5057780;28;20286;-65
2023/05/10 03:27:50;;;;;;;0.67;0.57;;;;;;;;;;5057569;28;20238;-65
2023/05/10 03:30:22;;;;;;;0.60;0.50;;;;;;;;;;5057834;28;20289;-65
2023/05/10 03:32:50;;;;;;;0.77;0.73;;;;;;;;;;5057045;28;20635;-65
2023/05/10 03:35:18;;;;;;;0.70;0.67;;;;;;;;;;5057248;28;20229;-65
2023/05/10 03:37:46;;;;;;;0.80;0.50;;;;;;;;;;5057537;28;20290;-65
2023/05/10 03:40:15;;;;;;;0.90;0.60;;;;;;;;;;5057524;28;20221;-65
2023/05/10 03:42:43;;;;;;;2.50;0.50;;;;;;;;;;5057555;28;20238;-65
2023/05/10 03:45:11;;;;;;;0.93;0.70;;;;;;;;;;5057129;28;20657;-65
2023/05/10 03:47:41;;;;;;;2.93;0.63;;;;;;;;;;5047831;28;20255;-65
2023/05/10 03:50:10;;;;;;;2.33;0.60;;;;;;;;;;5037603;28;20670;-64
2023/05/10 03:52:38;;;;;;;3.90;0.97;;;;;;;;;;5037558;28;20295;-65
2023/05/10 03:55:07;;;;;;;1.90;0.60;;;;;;;;;;5037365;28;20228;-65
2023/05/10 03:57:35;;;;;;;0.50;0.50;;;;;;;;;;5047064;28;20237;-65
2023/05/10 04:00:03;;;;;;;1.13;0.60;;;;;;;;;;5057053;28;20294;-65
2023/05/10 04:02:31;;;;;;;1.37;0.70;;;;;;;;;;5056809;28;20260;-65
2023/05/10 04:05:01;;;;;;;0.93;0.70;;;;;;;;;;5059867;28;20218;-64
2023/05/10 04:07:29;;;;;;;1.90;1.00;;;;;;;;;;5061619;28;20286;-64
2023/05/10 04:09:57;;;;;;;2.67;0.93;;;;;;;;;;5061420;28;20289;-63
2023/05/10 04:12:25;;;;;;;1.40;0.90;;;;;;;;;;5061109;28;20237;-65
2023/05/10 04:14:53;;;;;;;3.37;1.20;;;;;;;;;;5060773;28;20278;-64
2023/05/10 04:17:20;;;;;;;1.30;0.70;;;;;;;;;;5060630;28;20214;-65
2023/05/10 04:19:48;;;;;;;2.53;1.00;;;;;;;;;;5060938;28;20211;-64
2023/05/10 04:22:18;;;;;;;3.90;0.97;;;;;;;;;;5060829;28;20207;-63
2023/05/10 04:24:46;;;;;;;3.53;1.50;;;;;;;;;;5060353;28;20239;-64
2023/05/10 04:27:14;;;;;;;3.20;1.03;;;;;;;;;;5060461;28;20286;-64
2023/05/10 04:29:42;;;;;;;4.00;1.53;;;;;;;;;;5060699;28;20242;-64
2023/05/10 04:32:11;;;;;;;2.77;1.30;;;;;;;;;;5059944;28;20233;-64
2023/05/10 04:34:39;;;;;;;1.23;0.73;;;;;;;;;;5060590;28;20246;-64
2023/05/10 04:37:07;;;;;;;5.23;1.30;;;;;;;;;;5060460;28;20227;-63
2023/05/10 04:39:36;;;;;;;2.17;0.80;;;;;;;;;;5060598;28;20211;-63
2023/05/10 04:42:07;;;;;;;4.90;0.93;;;;;;;;;;5060383;28;20226;-60
2023/05/10 04:44:35;;;;;;;4.10;0.90;;;;;;;;;;5060354;28;20210;-59
2023/05/10 04:47:03;;;;;;;3.73;1.33;;;;;;;;;;5056622;28;20677;-61
2023/05/10 04:49:31;;;;;;;3.10;1.07;;;;;;;;;;5060083;28;20210;-61
2023/05/10 04:51:59;;;;;;;3.17;0.90;;;;;;;;;;5060171;28;20286;-61
2023/05/10 04:54:27;;;;;;;2.17;0.70;;;;;;;;;;5060237;28;20214;-60
2023/05/10 04:56:56;;;;;;;3.33;1.10;;;;;;;;;;5059913;28;20245;-61
2023/05/10 04:59:24;;;;;;;7.10;1.33;;;;;;;;;;5059917;28;20740;-60
2023/05/10 05:01:52;;;;;;;3.17;1.10;;;;;;;;;;5059623;28;20207;-59
2023/05/10 05:04:20;;;;;;;3.30;1.13;;;;;;;;;;5059646;28;20203;-60
2023/05/10 05:06:48;;;;;;;3.80;1.67;;;;;;;;;;5059596;28;20659;-60
2023/05/10 05:09:18;;;;;;;6.60;1.57;;;;;;;;;;5059634;28;20206;-59
2023/05/10 05:11:46;;;;;;;4.97;1.20;;;;;;;;;;5059881;28;20215;-59
2023/05/10 05:14:15;;;;;;;2.17;0.80;;;;;;;;;;5059414;28;20218;-61
2023/05/10 05:16:43;;;;;;;4.87;0.93;;;;;;;;;;5059218;28;20310;-60
2023/05/10 05:19:11;;;;;;;2.77;1.10;;;;;;;;;;5059273;28;20658;-60
2023/05/10 05:21:39;;;;;;;2.17;1.40;;;;;;;;;;5057777;28;20202;-60
2023/05/10 05:24:07;;;;;;;3.70;1.10;;;;;;;;;;5055006;28;20241;-61
2023/05/10 05:26:35;;;;;;;4.03;1.40;;;;;;;;;;5059321;28;20227;-61
2023/05/10 05:29:03;;;;;;;3.53;1.20;;;;;;;;;;5054600;28;20234;-59
2023/05/10 05:31:33;;;;;;;4.53;1.27;;;;;;;;;;5058937;28;20218;-61
2023/05/10 05:34:01;;;;;;;1.70;0.90;;;;;;;;;;5042893;28;20295;-61
2023/05/10 05:36:28;;;;;;;4.83;1.50;;;;;;;;;;5039380;28;20232;-61
2023/05/10 05:38:56;;;;;;;2.63;1.27;;;;;;;;;;5039340;28;20212;-61
2023/05/10 05:41:25;;;;;;;5.10;1.30;;;;;;;;;;5058802;28;20724;-61
2023/05/10 05:43:52;;;;;;;2.60;0.97;;;;;;;;;;5058422;28;20651;-61
2023/05/10 05:46:20;;;;;;;3.63;1.13;;;;;;;;;;5058346;28;20584;-61
2023/05/10 05:48:50;;;;;;;3.47;1.37;;;;;;;;;;5058345;28;20249;-61
2023/05/10 05:51:18;;;;;;;1.90;1.17;;;;;;;;;;5058900;28;20653;-61
2023/05/10 05:53:46;;;;;;;3.67;1.30;;;;;;;;;;5057358;28;20285;-61
2023/05/10 05:56:14;;;;;;;2.27;1.23;;;;;;;;;;5049926;28;20406;-61
2023/05/10 05:58:42;;;;;;;3.47;1.03;;;;;;;;;;5058598;28;20237;-61
2023/05/10 06:01:10;;;;;;;3.03;1.43;;;;;;;;;;5058841;28;20202;-62
2023/05/10 06:03:38;;;;;;;3.07;0.93;;;;;;;;;;5038901;28;20594;-61
2023/05/10 06:06:08;;;;;;;2.27;1.10;;;;;;;;;;5038804;28;20240;-62
2023/05/10 06:08:36;;;;;;;5.93;1.70;;;;;;;;;;5038415;28;20227;-62
2023/05/10 06:11:04;;;;;;;4.03;1.40;;;;;;;;;;5038459;28;20211;-62
2023/05/10 06:13:34;;;;;;;4.40;1.17;;;;;;;;;;5043567;28;20211;-62
2023/05/10 06:16:04;;;;;;;4.27;1.60;;;;;;;;;;5058297;28;20620;-62
2023/05/10 06:18:35;;;;;;;2.43;0.87;;;;;;;;;;5046289;28;20203;-62
2023/05/10 06:21:04;;;;;;;4.37;1.03;;;;;;;;;;5058322;28;20207;-62
2023/05/10 06:23:33;;;;;;;2.37;1.20;;;;;;;;;;5058475;28;20270;-62
2023/05/10 06:26:01;;;;;;;2.23;1.00;;;;;;;;;;5057894;28;20306;-62
2023/05/10 06:28:31;;;;;;;3.17;1.10;;;;;;;;;;5057415;28;20227;-62
2023/05/10 06:30:59;;;;;;;3.10;1.17;;;;;;;;;;5057693;28;20211;-62
2023/05/10 06:33:27;;;;;;;5.03;2.00;;;;;;;;;;5057872;28;20207;-61
2023/05/10 06:35:55;;;;;;;3.10;1.23;;;;;;;;;;5058169;28;20314;-62
2023/05/10 06:38:23;;;;;;;4.93;1.27;;;;;;;;;;5057850;28;20274;-60
2023/05/10 06:40:53;;;;;;;2.70;1.23;;;;;;;;;;5057720;28;20314;-63
2023/05/10 06:43:21;;;;;;;2.90;1.60;;;;;;;;;;5058106;28;20214;-63
2023/05/10 06:45:49;;;;;;;3.87;1.00;;;;;;;;;;5057837;28;20231;-60
2023/05/10 06:48:17;;;;;;;4.10;1.10;;;;;;;;;;5057403;28;20262;-62
2023/05/10 06:50:45;;;;;;;2.07;1.30;;;;;;;;;;5057687;28;20207;-62
2023/05/10 06:53:13;;;;;;;2.70;1.40;;;;;;;;;;5057728;28;20241;-62
2023/05/10 06:55:42;;;;;;;3.60;1.20;;;;;;;;;;5057641;28;20230;-62
2023/05/10 06:58:11;;;;;;;7.07;1.47;;;;;;;;;;5057754;28;20202;-62
2023/05/10 07:00:40;;;;;;;5.10;1.10;;;;;;;;;;5057891;28;20242;-61
2023/05/10 07:03:08;;;;;;;2.53;1.53;;;;;;;;;;5048683;28;20208;-63
2023/05/10 07:05:36;;;;;;;4.07;1.30;;;;;;;;;;5055184;28;20697;-62
2023/05/10 07:08:04;;;;;;;4.03;1.37;;;;;;;;;;5057481;28;20226;-62
2023/05/10 07:10:32;;;;;;;3.90;1.13;;;;;;;;;;5057752;28;20207;-63
2023/05/10 07:13:01;;;;;;;3.70;1.20;;;;;;;;;;5057241;28;20647;-62
2023/05/10 07:15:30;;;;;;;7.60;1.40;;;;;;;;;;5057336;28;20575;-62
2023/05/10 07:17:59;;;;;;;4.83;1.20;;;;;;;;;;5053972;28;20203;-62
2023/05/10 07:20:27;;;;;;;5.37;1.13;;;;;;;;;;5037755;28;20215;-64
2023/05/10 07:22:56;;;;;;;5.47;1.93;;;;;;;;;;5053732;28;20617;-62
2023/05/10 07:25:24;;;;;;;6.87;1.60;;;;;;;;;;5057431;28;20243;-62
2023/05/10 07:27:52;;;;;;;5.17;1.53;;;;;;;;;;5057378;28;20249;-62
2023/05/10 07:30:20;;;;;;;3.23;1.33;;;;;;;;;;5057244;28;20700;-62
2023/05/10 07:32:50;;;;;;;5.20;1.53;;;;;;;;;;5056777;28;20214;-62
2023/05/10 07:35:18;;;;;;;3.77;1.47;;;;;;;;;;5057398;28;20234;-62
2023/05/10 07:37:46;;;;;;;3.33;1.07;;;;;;;;;;5057407;28;20241;-64
2023/05/10 07:40:14;;;;;;;4.67;1.50;;;;;;;;;;5062101;28;20226;-62
2023/05/10 07:42:42;;;;;;;7.40;1.63;;;;;;;;;;5060992;28;20297;-62
2023/05/10 07:45:10;;;;;;;3.77;1.13;;;;;;;;;;5061355;28;20281;-64
2023/05/10 07:47:38;;;;;;;3.33;1.20;;;;;;;;;;5060578;28;20638;-62
2023/05/10 07:50:08;;;;;;;5.10;1.23;;;;;;;;;;5061126;28;20672;-62
2023/05/10 07:52:36;;;;;;;4.60;1.40;;;;;;;;;;5061471;28;20287;-62
2023/05/10 07:55:05;;;;;;;3.17;1.00;;;;;;;;;;5060732;28;20257;-62
2023/05/10 07:57:33;;;;;;;4.20;1.10;;;;;;;;;;5062476;28;20744;-64
2023/05/10 08:00:01;;;;;;;4.53;1.37;;;;;;;;;;5057938;28;20584;-65
2023/05/10 08:02:29;;;;;;;2.53;1.30;;;;;;;;;;5060665;28;20217;-62
2023/05/10 08:04:57;;;;;;;2.30;1.20;;;;;;;;;;5060828;28;20229;-63
2023/05/10 08:07:27;;;;;;;5.90;1.67;;;;;;;;;;5060600;28;20294;-62
2023/05/10 08:09:55;;;;;;;4.93;2.00;;;;;;;;;;5060448;28;20328;-62
2023/05/10 08:12:23;;;;;;;3.33;1.30;;;;;;;;;;5060608;28;20195;-63
2023/05/10 08:14:51;;;;;;;4.03;1.10;;;;;;;;;;5047831;28;20212;-63
2023/05/10 08:17:19;;;;;;;6.47;1.50;;;;;;;;;;5040450;28;20207;-63
2023/05/10 08:19:49;;;;;;;5.53;1.33;;;;;;;;;;5055045;28;20242;-62
2023/05/10 08:22:17;;;;;;;2.33;0.77;;;;;;;;;;5060758;28;20264;-62
2023/05/10 08:24:47;;;;;;;3.97;1.23;;;;;;;;;;5060042;28;20289;-62
2023/05/10 08:27:14;;;;;;;2.43;1.63;;;;;;;;;;5060621;28;20233;-62
2023/05/10 08:29:42;;;;;;;5.60;1.83;;;;;;;;;;5060274;28;20233;-62
2023/05/10 08:32:17;;;;;;;2.90;1.17;;;;;;;;;;5059915;28;20217;-62
2023/05/10 08:34:45;;;;;;;9.03;1.50;;;;;;;;;;5060137;28;20639;-62
2023/05/10 08:37:13;;;;;;;2.47;1.00;;;;;;;;;;5060204;28;20233;-62
2023/05/10 08:39:41;;;;;;;5.17;1.63;;;;;;;;;;5060329;28;20207;-64
2023/05/10 08:42:11;;;;;;;6.07;1.10;;;;;;;;;;5060009;28;20207;-62
2023/05/10 08:44:40;;;;;;;4.43;1.60;;;;;;;;;;5060316;28;20207;-63
2023/05/10 08:47:10;;;;;;;5.27;1.50;;;;;;;;;;5059456;28;20234;-63
2023/05/10 08:49:38;;;;;;;3.37;1.40;;;;;;;;;;5059882;28;20227;-63
2023/05/10 08:52:07;;;;;;;3.93;1.07;;;;;;;;;;5059233;28;20207;-63
2023/05/10 08:54:35;;;;;;;4.33;0.90;;;;;;;;;;5060109;28;20211;-63
2023/05/10 08:57:03;;;;;;;3.73;1.10;;;;;;;;;;5059661;28;21156;-62
2023/05/10 08:59:33;;;;;;;5.97;1.30;;;;;;;;;;5052102;28;20207;-63
2023/05/10 09:02:01;;;;;;;2.73;1.20;;;;;;;;;;5039819;28;20207;-63
2023/05/10 09:04:30;;;;;;;3.80;1.57;;;;;;;;;;5052704;28;20261;-62
2023/05/10 09:06:58;;;;;;;3.67;1.20;;;;;;;;;;5059487;28;20227;-63
2023/05/10 09:09:26;;;;;;;5.83;1.07;;;;;;;;;;5059436;28;20235;-62
2023/05/10 09:11:55;;;;;;;3.20;1.20;;;;;;;;;;5059686;28;20203;-62
2023/05/10 09:14:24;;;;;;;7.30;1.50;;;;;;;;;;5059436;28;20245;-62
2023/05/10 09:16:54;;;;;;;4.67;1.70;;;;;;;;;;5059256;28;20237;-62
2023/05/10 09:19:22;;;;;;;3.67;1.13;;;;;;;;;;5059635;28;20203;-62
2023/05/10 09:21:50;;;;;;;8.13;1.67;;;;;;;;;;5059425;28;20217;-63
2023/05/10 09:24:18;;;;;;;3.67;1.10;;;;;;;;;;5059184;28;20304;-63
2023/05/10 09:26:49;;;;;;;2.37;1.30;;;;;;;;;;5059067;28;20701;-63
2023/05/10 09:29:17;;;;;;;3.07;1.50;;;;;;;;;;5046258;28;20290;-63
2023/05/10 09:31:46;;;;;;;4.23;1.27;;;;;;;;;;5059093;28;20249;-63
2023/05/10 09:34:19;;;;;;;1.47;1.00;;;;;;;;;;5059414;28;20250;-63
2023/05/10 09:36:51;;;;;;;5.30;1.40;;;;;;;;;;5059093;28;20226;-63
2023/05/10 09:39:19;;;;;;;4.53;1.73;;;;;;;;;;5050023;28;20568;-63
2023/05/10 09:41:48;;;;;;;4.10;1.57;;;;;;;;;;5055449;28;20637;-63
2023/05/10 09:44:18;;;;;;;4.13;1.33;;;;;;;;;;5055656;28;20667;-63
2023/05/10 09:46:50;;;;;;;4.17;1.30;;;;;;;;;;5058366;28;20717;-63
2023/05/10 09:49:19;;;;;;;3.70;1.23;;;;;;;;;;5058769;28;20227;-63
2023/05/10 09:51:47;;;;;;;5.43;1.40;;;;;;;;;;5058747;28;20210;-63
2023/05/10 09:54:16;;;;;;;5.03;1.13;;;;;;;;;;5058544;28;20686;-63
2023/05/10 09:56:44;;;;;;;3.47;1.40;;;;;;;;;;5058520;28;20227;-63
2023/05/10 09:59:13;;;;;;;3.03;1.13;;;;;;;;;;5058832;28;20260;-63
2023/05/10 10:01:41;;;;;;;1.63;1.30;;;;;;;;;;5058250;28;20207;-63
2023/05/10 10:04:12;;;;;;;3.10;1.40;;;;;;;;;;5058712;28;20261;-63
2023/05/10 10:06:42;;;;;;;3.47;2.70;;;;;;;;;;5058861;28;20318;-63
2023/05/10 10:09:20;;;;;;;;;;;;;;;;;;;;;
2023/05/10 10:11:50;;;;;;;4.37;1.50;;;;;;;;;;5057750;28;20206;-63
2023/05/10 10:14:19;;;;;;;2.47;1.53;;;;;;;;;;5058505;28;20654;-63
2023/05/10 10:16:47;;;;;;;4.87;1.40;;;;;;;;;;5057825;28;20277;-63
2023/05/10 10:19:34;;;;;;;3.93;1.23;;;;;;;;;;5058118;28;20202;-63
2023/05/10 10:22:04;;;;;;;5.27;1.23;;;;;;;;;;5049586;28;21114;-62
2023/05/10 10:24:32;;;;;;;1.93;1.30;;;;;;;;;;5046753;28;20226;-63
2023/05/10 10:27:04;;;;;;;4.07;1.73;;;;;;;;;;5048777;28;20231;-62
2023/05/10 10:29:35;;;;;;;4.33;1.13;;;;;;;;;;5049699;28;20243;-64
2023/05/10 10:32:07;;;;;;;4.67;1.10;;;;;;;;;;5047869;28;20623;-64
2023/05/10 10:34:35;;;;;;;3.03;1.17;;;;;;;;;;5047173;28;20203;-63
2023/05/10 10:37:06;;;;;;;1.10;0.70;;;;;;;;;;5045341;28;20227;-64
2023/05/10 10:39:36;;;;;;;2.30;1.00;;;;;;;;;;5039444;28;20561;-64
2023/05/10 10:42:05;;;;;;;3.77;1.10;;;;;;;;;;5056006;28;20209;-64
2023/05/10 10:44:37;;;;;;;2.87;0.80;;;;;;;;;;5057801;28;20231;-64
2023/05/10 10:47:24;;;;;;;2.17;0.87;;;;;;;;;;5057385;28;20227;-64
2023/05/10 10:49:54;;;;;;;2.93;1.20;;;;;;;;;;5057691;28;20230;-64
2023/05/10 10:52:26;;;;;;;3.53;1.27;;;;;;;;;;5057666;28;20207;-64
2023/05/10 10:54:58;;;;;;;4.07;1.23;;;;;;;;;;5057472;28;20297;-64
2023/05/10 10:57:27;;;;;;;5.10;1.57;;;;;;;;;;5057555;28;20207;-64
2023/05/10 11:00:10;;;;;;;3.90;2.07;;;;;;;;;;5052610;28;20234;-62
2023/05/10 11:02:48;;;;;;;6.03;2.43;;;;;;;;;;5046991;28;20205;-63
2023/05/10 11:05:33;;;;;;;3.03;1.50;;;;;;;;;;5047011;28;20219;-66
2023/05/10 11:08:08;;;;;;;2.60;1.10;;;;;;;;;;5047019;28;20233;-64
2023/05/10 11:10:36;;;;;;;3.83;1.20;;;;;;;;;;5047634;28;20223;-63
2023/05/10 11:13:05;;;;;;;4.50;1.57;;;;;;;;;;5046375;28;20202;-63
2023/05/10 11:15:33;;;;;;;3.20;1.73;;;;;;;;;;5046491;28;20345;-64
2023/05/10 11:18:17;;;;;;;1.47;1.33;;;;;;;;;;5038073;28;20574;-64
2023/05/10 11:20:46;;;;;;;4.33;1.27;;;;;;;;;;5037716;28;20207;-63
2023/05/10 11:23:17;;;;;;;6.50;1.37;;;;;;;;;;5045071;28;20199;-64
2023/05/10 11:25:45;;;;;;;3.70;1.20;;;;;;;;;;5048451;28;20245;-63
2023/05/10 11:28:13;;;;;;;2.93;1.50;;;;;;;;;;5045626;28;20228;-63
2023/05/10 11:30:42;;;;;;;2.50;1.10;;;;;;;;;;5044262;28;20274;-63
2023/05/10 11:33:10;;;;;;;2.00;0.80;;;;;;;;;;5046597;28;20287;-63
2023/05/10 11:35:39;;;;;;;4.27;0.97;;;;;;;;;;5046757;28;20262;-63
2023/05/10 11:38:10;;;;;;;5.17;1.20;;;;;;;;;;5047666;28;20215;-63
2023/05/10 11:40:39;;;;;;;5.17;1.30;;;;;;;;;;5048067;28;20200;-64
2023/05/10 11:43:09;;;;;;;3.03;1.63;;;;;;;;;;5046442;28;20207;-64
2023/05/10 11:45:36;;;;;;;2.40;1.10;;;;;;;;;;5063790;28;20260;-63
2023/05/10 11:48:04;;;;;;;7.60;1.27;;;;;;;;;;5057133;28;20206;-64
2023/05/10 11:50:32;;;;;;;2.67;0.93;;;;;;;;;;5057439;28;20219;-64
2023/05/10 11:53:00;;;;;;;3.60;1.17;;;;;;;;;;5057372;28;20628;-64
2023/05/10 11:55:29;;;;;;;4.10;1.30;;;;;;;;;;5057278;28;20280;-63
2023/05/10 11:58:01;;;;;;;2.30;1.17;;;;;;;;;;5057334;28;20203;-63
2023/05/10 12:00:29;;;;;;;3.83;1.30;;;;;;;;;;5048123;28;20226;-64
2023/05/10 12:02:57;;;;;;;5.07;1.37;;;;;;;;;;5056975;28;20207;-63
2023/05/10 12:05:25;;;;;;;2.53;1.30;;;;;;;;;;5057296;28;20253;-63
2023/05/10 12:07:53;;;;;;;4.63;1.10;;;;;;;;;;5054245;28;20203;-64
2023/05/10 12:10:26;;;;;;;2.47;1.07;;;;;;;;;;5057122;28;20229;-63
2023/05/10 12:12:54;;;;;;;1.97;0.80;;;;;;;;;;5056629;28;20206;-63
2023/05/10 12:15:24;;;;;;;3.47;1.10;;;;;;;;;;5057025;28;20246;-63
2023/05/10 12:17:51;;;;;;;1.83;0.93;;;;;;;;;;5044001;28;20207;-63
2023/05/10 12:20:20;;;;;;;2.83;1.03;;;;;;;;;;5056729;28;20310;-63
2023/05/10 12:22:50;;;;;;;3.13;0.90;;;;;;;;;;5056858;28;20229;-63
2023/05/10 12:25:18;;;;;;;4.03;1.63;;;;;;;;;;5056460;28;20242;-63
2023/05/10 12:27:49;;;;;;;4.93;1.20;;;;;;;;;;5060264;28;20659;-63
2023/05/10 12:30:20;;;;;;;2.40;1.30;;;;;;;;;;5060188;28;20211;-62
2023/05/10 12:32:50;;;;;;;9.03;4.67;;;;;;;;;;5060288;28;20257;-63
2023/05/10 12:35:20;;;;;;;6.17;1.70;;;;;;;;;;5060107;28;20635;-63
2023/05/10 12:37:48;;;;;;;4.47;1.30;;;;;;;;;;5060566;28;20249;-63
2023/05/10 12:40:16;;;;;;;4.63;1.40;;;;;;;;;;5060051;28;20234;-63
2023/05/10 12:42:44;;;;;;;2.43;0.90;;;;;;;;;;5060452;28;20260;-63
2023/05/10 12:45:12;;;;;;;2.97;1.23;;;;;;;;;;5059939;28;20222;-64
2023/05/10 12:51:03;;;;;;;5.07;1.10;;;;;;;;;;5056886;28;20237;-63
2023/05/10 12:53:31;;;;;;;2.10;1.00;;;;;;;;;;5060097;28;20301;-63
2023/05/10 12:55:59;;;;;;;3.50;1.47;;;;;;;;;;5060104;28;20227;-63
2023/05/10 12:58:27;;;;;;;2.20;1.00;;;;;;;;;;5060124;28;20207;-63
2023/05/10 13:01:04;;;;;;;2.20;1.13;;;;;;;;;;5060157;28;20248;-64
2023/05/10 13:03:32;;;;;;;2.27;0.87;;;;;;;;;;5059849;28;20210;-64
2023/05/10 13:06:00;;;;;;;2.03;0.97;;;;;;;;;;5059585;28;20227;-63
2023/05/10 13:08:33;;;;;;;9.87;6.93;;;;;;;;;;5059879;28;20203;-64
2023/05/10 13:11:01;;;;;;;4.27;2.07;;;;;;;;;;5059470;28;20272;-63
2023/05/10 13:13:29;;;;;;;5.23;1.10;;;;;;;;;;5059851;28;20211;-64
2023/05/10 13:15:57;;;;;;;5.13;1.00;;;;;;;;;;5059798;28;20231;-63
2023/05/10 13:18:26;;;;;;;4.20;1.13;;;;;;;;;;5059723;28;20213;-63
2023/05/10 13:20:55;;;;;;;2.13;0.90;;;;;;;;;;5059305;28;20296;-63
2023/05/10 13:23:23;;;;;;;4.03;1.53;;;;;;;;;;5059526;28;20210;-63
2023/05/10 13:25:52;;;;;;;5.10;1.13;;;;;;;;;;5059475;28;20267;-63
2023/05/10 13:28:20;;;;;;;5.43;1.30;;;;;;;;;;5059344;28;20577;-63
2023/05/10 13:30:48;;;;;;;3.27;1.13;;;;;;;;;;5059475;28;20253;-63
2023/05/10 13:33:16;;;;;;;1.33;1.13;;;;;;;;;;5059020;28;20210;-63
2023/05/10 13:35:44;;;;;;;1.73;0.77;;;;;;;;;;5059547;28;20308;-63
2023/05/10 13:38:13;;;;;;;5.67;1.50;;;;;;;;;;5058950;28;20211;-63
2023/05/10 13:40:41;;;;;;;2.23;1.03;;;;;;;;;;5059289;28;20207;-63
2023/05/10 13:43:10;;;;;;;2.67;1.47;;;;;;;;;;5059004;28;20207;-63
2023/05/10 13:45:38;;;;;;;4.17;1.07;;;;;;;;;;5058952;28;20227;-64
2023/05/10 13:48:06;;;;;;;3.20;0.97;;;;;;;;;;5058831;28;20211;-63
2023/05/10 13:50:34;;;;;;;3.03;0.80;;;;;;;;;;5059060;28;20214;-63
2023/05/10 13:53:02;;;;;;;2.43;0.73;;;;;;;;;;5058827;28;20567;-63
2023/05/10 13:55:30;;;;;;;2.97;0.90;;;;;;;;;;5055645;28;20218;-62
2023/05/10 13:57:58;;;;;;;1.63;0.80;;;;;;;;;;5046990;28;20586;-63
2023/05/10 14:00:27;;;;;;;3.10;1.17;;;;;;;;;;5049537;28;20199;-63
2023/05/10 14:02:55;;;;;;;1.33;0.80;;;;;;;;;;5054630;28;20612;-63
2023/05/10 14:05:24;;;;;;;3.23;1.27;;;;;;;;;;5058645;28;20241;-63
2023/05/10 14:07:53;;;;;;;4.13;1.20;;;;;;;;;;5058505;28;20293;-62
2023/05/10 14:10:21;;;;;;;1.33;0.90;;;;;;;;;;5058717;28;20221;-63
2023/05/10 14:12:52;;;;;;;3.70;1.10;;;;;;;;;;5058689;28;20227;-63
2023/05/10 14:15:20;;;;;;;2.90;1.20;;;;;;;;;;5058470;28;20650;-63
2023/05/10 14:17:49;;;;;;;6.27;1.20;;;;;;;;;;5058404;28;20206;-63
2023/05/10 14:20:17;;;;;;;2.20;1.00;;;;;;;;;;5047543;28;20203;-63
2023/05/10 14:22:45;;;;;;;2.30;1.00;;;;;;;;;;5057106;28;20544;-62
2023/05/10 14:25:13;;;;;;;2.13;0.93;;;;;;;;;;5058025;28;20661;-63
2023/05/10 14:27:41;;;;;;;5.10;1.60;;;;;;;;;;5058279;28;20297;-63
2023/05/10 14:30:10;;;;;;;2.20;0.90;;;;;;;;;;5053756;28;20211;-63
2023/05/10 14:32:38;;;;;;;1.97;1.20;;;;;;;;;;5047542;28;20223;-63
2023/05/10 14:35:08;;;;;;;3.77;1.60;;;;;;;;;;5047833;28;20690;-63
2023/05/10 14:37:39;;;;;;;3.03;1.30;;;;;;;;;;5046080;28;20580;-63
2023/05/10 14:40:09;;;;;;;3.60;1.43;;;;;;;;;;5047547;28;20195;-63
2023/05/10 14:42:36;;;;;;;1.27;0.97;;;;;;;;;;5049855;28;20217;-63
2023/05/10 14:45:05;;;;;;;2.03;1.10;;;;;;;;;;5047031;28;20230;-63
2023/05/10 14:47:33;;;;;;;2.77;1.03;;;;;;;;;;5040428;28;20207;-63
2023/05/10 14:50:01;;;;;;;2.50;0.87;;;;;;;;;;5040596;28;20202;-63
2023/05/10 14:52:33;;;;;;;3.37;1.00;;;;;;;;;;5045925;28;20227;-63
2023/05/10 14:55:01;;;;;;;5.20;1.30;;;;;;;;;;5045692;28;20196;-63
2023/05/10 14:57:29;;;;;;;4.20;1.30;;;;;;;;;;5047596;28;20612;-63